3MA3 weather

Public forecast

Using degrees Fahrenheit for public forecast. Weather courtesy of forecast.io.

Closest aviation weather report (METAR) to Seapuit Heliport

Closest report is Cape Cod Coast Guard Air Station, 5.5 nm (10.2 km) WNW. Retrieved 2020/08/14 09:45 UTC (1 hour ago):

KFMH 140945Z 03005KT 10SM CLR 21/17 A3004

Closest aviation forecast (TAF) to Seapuit Heliport

Closest forecast is Cape Cod Coast Guard Air Station, 5.5 nm (10.2 km) WNW. Retrieved 2020/08/14 06:42 UTC (4 hours ago):

TAF KFMH 140540Z 1406/1506 00000KT P6SM SKC FM140800 01003KT P6SM SCT200 FM141200 04005KT P6SM BKN200